createdAt,value
2023-03-23T15:59:01.693Z,97098.59
2023-03-23T16:01:33.806Z,97095.59
2023-03-23T16:04:08.404Z,97103.41
2023-03-23T16:06:39.337Z,97091.91
2023-03-23T16:09:11.851Z,97093.06
2023-03-23T16:11:41.263Z,97089.44
2023-03-23T16:14:10.384Z,97087.25
2023-03-23T16:16:50.289Z,97088.09
2023-03-23T16:19:22.175Z,97087.50
2023-03-23T16:21:51.260Z,97080.72
2023-03-23T16:24:20.411Z,97076.91
2023-03-23T16:26:49.715Z,97088.59
2023-03-23T16:29:39.886Z,97082.19
2023-03-23T16:32:18.448Z,97074.00
2023-03-23T16:34:49.839Z,97073.03
2023-03-23T16:37:19.596Z,97064.81
2023-03-23T16:39:48.831Z,97067.28
2023-03-23T16:42:17.957Z,97062.69
2023-03-23T16:44:49.448Z,97057.69
2023-03-23T16:47:28.194Z,97065.34
2023-03-23T16:49:57.217Z,97069.03
2023-03-23T16:52:26.531Z,97060.03
2023-03-23T16:55:01.276Z,97062.09
2023-03-23T16:57:35.286Z,97059.16
2023-03-23T17:00:13.159Z,97058.16
2023-03-23T17:02:44.916Z,97054.75
2023-03-23T17:05:14.967Z,97051.56
2023-03-23T17:07:44.338Z,97047.16
2023-03-23T17:10:14.657Z,97046.16
2023-03-23T17:12:44.743Z,97043.16
2023-03-23T17:15:14.068Z,97043.50
2023-03-23T17:17:43.645Z,97030.16
2023-03-23T17:20:14.027Z,97034.22
2023-03-23T17:22:43.230Z,97030.13
2023-03-23T17:25:12.637Z,97036.09
2023-03-23T17:27:43.380Z,97037.91
2023-03-23T17:30:12.949Z,97031.47
2023-03-23T17:32:42.210Z,97029.81
2023-03-23T17:35:11.254Z,97024.75
2023-03-23T17:37:40.256Z,97024.31
2023-03-23T17:40:10.874Z,97021.13
2023-03-23T17:42:41.436Z,97017.56
2023-03-23T17:45:11.746Z,97019.00
2023-03-23T17:47:41.029Z,97012.81
2023-03-23T17:50:12.665Z,97012.25
2023-03-23T17:52:43.930Z,97012.28
2023-03-23T17:55:12.970Z,97004.50
2023-03-23T17:57:43.375Z,96996.91
2023-03-23T18:00:16.046Z,96986.28
2023-03-23T18:02:45.187Z,96983.84
2023-03-23T18:05:14.692Z,96986.47
2023-03-23T18:07:43.482Z,96991.28
2023-03-23T18:10:13.390Z,96991.94
2023-03-23T18:12:42.889Z,96992.34
2023-03-23T18:15:12.248Z,96993.38
2023-03-23T18:17:41.101Z,96991.56
2023-03-23T18:20:10.305Z,96994.94
2023-03-23T18:22:39.116Z,96987.13
2023-03-23T18:25:08.156Z,96986.34
2023-03-23T18:27:36.998Z,96988.72
2023-03-23T18:30:06.727Z,96989.94
2023-03-23T18:32:40.466Z,96987.59
2023-03-23T18:35:11.511Z,96986.38
2023-03-23T18:37:41.168Z,96985.16
2023-03-23T18:40:14.997Z,96983.34
2023-03-23T18:42:45.577Z,96976.59
2023-03-23T18:45:14.419Z,96971.41
2023-03-23T18:47:44.039Z,96972.19
2023-03-23T18:50:13.085Z,96970.81
2023-03-23T18:52:42.835Z,96969.63
2023-03-23T18:55:11.968Z,96972.47
2023-03-23T18:57:41.897Z,96963.44
2023-03-23T19:00:12.038Z,96964.88
2023-03-23T19:02:42.115Z,96964.31
2023-03-23T19:05:11.726Z,96965.53
2023-03-23T19:07:40.483Z,96964.72
2023-03-23T19:10:10.026Z,96956.53
2023-03-23T19:12:40.075Z,96960.75
2023-03-23T19:15:09.106Z,96960.81
2023-03-23T19:17:38.438Z,96957.03
2023-03-23T19:20:14.512Z,96958.81
2023-03-23T19:22:45.915Z,96950.19
2023-03-23T19:25:14.839Z,96954.81
2023-03-23T19:28:27.416Z,96945.22
2023-03-23T19:30:32.717Z,96944.84
2023-03-23T19:33:01.845Z,96942.06
2023-03-23T19:35:32.263Z,96940.66
2023-03-23T19:38:01.154Z,96939.28
2023-03-23T19:40:40.297Z,96935.66
2023-03-23T19:43:11.035Z,96925.88
2023-03-23T19:45:42.410Z,96923.69
2023-03-23T19:48:11.324Z,96924.09
2023-03-23T19:50:40.861Z,96922.09
2023-03-23T19:53:10.251Z,96918.50
2023-03-23T19:55:39.250Z,96914.88
2023-03-23T19:58:08.133Z,96906.47
2023-03-23T20:00:38.472Z,96909.25
2023-03-23T20:03:08.811Z,96907.22
2023-03-23T20:05:38.124Z,96908.03
2023-03-23T20:08:07.526Z,96899.56
2023-03-23T20:10:37.305Z,96898.97
2023-03-23T20:13:06.390Z,96895.75
2023-03-23T20:15:36.445Z,96894.34
2023-03-23T20:18:06.694Z,96893.16
2023-03-23T20:20:36.836Z,96892.78
2023-03-23T20:23:08.421Z,96896.22
2023-03-23T20:25:37.201Z,96901.66
2023-03-23T20:28:06.667Z,96890.41
2023-03-23T20:30:35.734Z,96892.56
2023-03-23T20:33:05.534Z,96883.22
2023-03-23T20:35:34.391Z,96885.56
2023-03-23T20:38:03.081Z,96884.97
2023-03-23T20:40:32.052Z,96884.13
2023-03-23T20:43:01.100Z,96875.75
2023-03-23T20:45:29.800Z,96868.34
2023-03-23T20:48:02.703Z,96870.19
2023-03-23T20:50:31.551Z,96864.97
2023-03-23T20:53:00.285Z,96855.78
2023-03-23T20:55:29.056Z,96852.97
2023-03-23T20:57:57.800Z,96841.38
2023-03-23T21:00:27.468Z,96847.22
2023-03-23T21:02:56.581Z,96850.81
2023-03-23T21:05:25.876Z,96844.84
2023-03-23T21:07:56.333Z,96845.00
2023-03-23T21:10:26.256Z,96845.00
2023-03-23T21:12:55.548Z,96845.19
2023-03-23T21:15:24.417Z,96832.34
2023-03-23T21:17:53.331Z,96832.91
2023-03-23T21:20:24.338Z,96827.78
2023-03-23T21:22:53.145Z,96830.56
2023-03-23T21:25:34.284Z,96832.41
2023-03-23T21:28:07.393Z,96828.66
2023-03-23T21:30:36.281Z,96831.00
2023-03-23T21:33:06.092Z,96833.59
2023-03-23T21:35:36.296Z,96821.06
2023-03-23T21:38:05.768Z,96821.28
2023-03-23T21:40:34.562Z,96826.69
2023-03-23T21:43:03.257Z,96812.84
2023-03-23T21:45:33.069Z,96820.09
2023-03-23T21:48:03.099Z,96809.72
2023-03-23T21:50:36.223Z,96815.13
2023-03-23T21:53:06.307Z,96806.69
2023-03-23T21:55:35.389Z,96805.31
2023-03-23T21:58:06.259Z,96805.72
2023-03-23T22:00:35.739Z,96819.50
2023-03-23T22:03:05.427Z,96815.53
2023-03-23T22:05:34.159Z,96821.34
2023-03-23T22:08:03.093Z,96820.56
2023-03-23T22:10:31.797Z,96818.97
2023-03-23T22:13:00.507Z,96820.38
2023-03-23T22:15:30.062Z,96803.78
2023-03-23T22:17:58.856Z,96805.75
2023-03-23T22:20:27.810Z,96810.56
2023-03-23T22:22:56.614Z,96811.56
2023-03-23T22:25:25.627Z,96806.94
2023-03-23T22:27:55.849Z,96813.16
2023-03-23T22:30:25.287Z,96802.16
2023-03-23T22:32:53.995Z,96795.97
2023-03-23T22:35:22.894Z,96795.56
2023-03-23T22:37:51.789Z,96795.56
2023-03-23T22:40:20.678Z,96786.13
2023-03-23T22:42:49.454Z,96786.94
2023-03-23T22:45:18.947Z,96784.72
2023-03-23T22:47:47.988Z,96779.56
2023-03-23T22:50:16.764Z,96784.19
2023-03-23T22:52:45.508Z,96783.78
2023-03-23T22:55:14.382Z,96791.03
2023-03-23T22:57:43.154Z,96789.66
2023-03-23T23:00:15.379Z,96782.06
2023-03-23T23:02:45.190Z,96782.88
2023-03-23T23:05:15.279Z,96784.25
2023-03-23T23:07:44.074Z,96785.69
2023-03-23T23:10:12.918Z,96788.09
2023-03-23T23:12:42.959Z,96790.53
2023-03-23T23:15:15.309Z,96777.91
2023-03-23T23:17:44.627Z,96783.53
2023-03-23T23:20:15.785Z,96783.53
2023-03-23T23:22:45.128Z,96776.34
2023-03-23T23:25:14.175Z,96777.34
2023-03-23T23:27:42.954Z,96768.72
2023-03-23T23:30:13.106Z,96771.94
2023-03-23T23:32:43.398Z,96769.16
2023-03-23T23:35:13.390Z,96761.97
2023-03-23T23:37:42.261Z,96765.78
2023-03-23T23:40:11.578Z,96764.38
2023-03-23T23:42:41.645Z,96766.19
2023-03-23T23:45:11.350Z,96764.59
2023-03-23T23:47:41.088Z,96758.41
2023-03-23T23:50:12.189Z,96756.56
2023-03-23T23:52:43.057Z,96759.56
2023-03-23T23:55:14.229Z,96753.53
2023-03-23T23:57:44.220Z,96755.72
